Time;durP1;ratioP1;P1;durP2;ratioP2;P2;SDS_P1;SDS_P2;PMS_P1;PMS_P2;Temp;Humidity;BMP_temperature;BMP_pressure;BME280_temperature;BME280_humidity;BME280_pressure;Samples;Min_cycle;Max_cycle;Signal;HPM_P1;HPM_P2
2022/03/24 00:02:45;;;;;;;11.70;6.20;;;;;;;10.04;27.09;100823.91;6345681;28;20043;-67
2022/03/24 00:05:46;;;;;;;12.18;6.38;;;;;;;9.94;27.90;100832.22;6345706;28;20040;-67
2022/03/24 00:08:47;;;;;;;12.65;7.57;;;;;;;9.84;27.95;100823.97;6345642;28;20089;-69
2022/03/24 00:11:48;;;;;;;18.13;10.00;;;;;;;9.51;30.39;100826.34;6346641;28;20036;-67
2022/03/24 00:14:49;;;;;;;21.60;11.00;;;;;;;9.12;31.76;100825.41;6349266;28;20526;-68
2022/03/24 00:17:49;;;;;;;21.40;11.57;;;;;;;8.84;31.73;100823.13;6350519;28;20658;-68
2022/03/24 00:20:51;;;;;;;24.92;10.88;;;;;;;8.61;32.20;100813.66;6350388;28;20123;-68
2022/03/24 00:23:55;;;;;;;18.42;10.02;;;;;;;8.45;32.88;100811.66;6333142;28;20066;-69
2022/03/24 00:26:56;;;;;;;20.20;9.88;;;;;;;8.20;32.75;100813.53;6348815;28;20055;-68
2022/03/24 00:29:57;;;;;;;21.85;11.32;;;;;;;8.14;33.66;100806.78;6350239;28;20046;-68
2022/03/24 00:32:57;;;;;;;22.48;10.88;;;;;;;8.05;34.97;100797.63;6350118;28;20036;-67
2022/03/24 00:35:58;;;;;;;24.20;11.73;;;;;;;7.93;35.58;100799.81;6348702;28;20036;-68
2022/03/24 00:39:00;;;;;;;29.05;10.90;;;;;;;7.57;35.73;100792.50;6349831;28;20054;-69
2022/03/24 00:42:11;;;;;;;17.80;8.83;;;;;;;7.61;35.09;100784.53;6349811;28;20043;-68
2022/03/24 00:45:12;;;;;;;19.80;10.10;;;;;;;7.42;35.48;100776.56;6349836;28;20064;-68
2022/03/24 00:48:13;;;;;;;16.90;9.50;;;;;;;7.39;36.55;100768.91;6349882;28;20377;-67
2022/03/24 00:51:15;;;;;;;20.20;9.60;;;;;;;7.50;37.20;100768.50;6349724;28;20054;-66
2022/03/24 00:54:18;;;;;;;17.33;8.77;;;;;;;7.50;35.45;100770.28;6347928;28;20044;-67
2022/03/24 00:57:19;;;;;;;18.33;9.98;;;;;;;7.48;36.35;100767.72;6349408;28;20079;-70
2022/03/24 01:00:25;;;;;;;18.55;9.88;;;;;;;7.43;35.98;100761.84;6348052;28;20066;-71
2022/03/24 01:03:25;;;;;;;18.98;9.77;;;;;;;7.34;35.43;100767.38;6348187;28;20104;-71
2022/03/24 01:06:26;;;;;;;25.58;12.38;;;;;;;7.21;35.21;100759.19;6349068;28;20484;-71
2022/03/24 01:09:27;;;;;;;23.15;11.35;;;;;;;7.15;34.65;100767.19;6349220;28;20048;-70
2022/03/24 01:12:28;;;;;;;24.08;11.13;;;;;;;7.10;35.56;100763.91;6349132;28;20084;-66
2022/03/24 01:15:30;;;;;;;29.42;10.90;;;;;;;6.95;35.90;100757.50;6349234;28;20075;-70
2022/03/24 01:18:34;;;;;;;24.42;11.48;;;;;;;6.89;35.45;100748.19;6349133;28;20048;-66
2022/03/24 01:21:36;;;;;;;21.77;11.07;;;;;;;6.83;35.99;100748.38;6348896;28;20044;-70
2022/03/24 01:24:38;;;;;;;19.98;10.93;;;;;;;6.78;37.59;100751.16;6347128;28;20040;-66
2022/03/24 01:27:39;;;;;;;23.02;9.23;;;;;;;6.64;36.98;100750.78;6347543;28;20070;-71
2022/03/24 01:30:39;;;;;;;22.02;9.55;;;;;;;6.65;35.51;100745.53;6348866;28;20539;-71
2022/03/24 01:33:40;;;;;;;19.35;9.70;;;;;;;6.57;35.32;100742.34;6330551;28;20044;-70
2022/03/24 01:36:42;;;;;;;20.10;9.65;;;;;;;6.52;36.05;100743.41;6348565;28;20080;-70
2022/03/24 01:39:43;;;;;;;25.35;12.68;;;;;;;6.42;36.11;100742.84;6348656;28;20064;-67
2022/03/24 01:42:46;;;;;;;36.70;16.47;;;;;;;6.30;36.68;100753.59;6348500;28;20063;-71
2022/03/24 01:45:48;;;;;;;43.65;13.13;;;;;;;6.09;36.53;100750.81;6330387;28;20059;-67
2022/03/24 01:48:49;;;;;;;22.55;10.98;;;;;;;6.07;36.03;100742.22;6347031;28;20051;-70
2022/03/24 01:51:50;;;;;;;20.40;10.20;;;;;;;5.89;36.09;100748.81;6348331;28;20039;-70
2022/03/24 01:54:54;;;;;;;20.92;9.73;;;;;;;5.84;36.12;100748.09;6348236;28;20043;-70
2022/03/24 01:57:55;;;;;;;22.15;11.68;;;;;;;5.72;35.94;100744.13;6346720;28;20056;-66
2022/03/24 02:01:29;;;;;;;33.45;13.00;;;;;;;5.67;36.17;100743.41;6346675;28;20062;-70
2022/03/24 02:04:32;;;;;;;23.23;11.93;;;;;;;5.58;36.65;100739.38;6347966;28;20574;-70
2022/03/24 02:07:34;;;;;;;24.55;12.48;;;;;;;5.62;36.75;100732.34;6346367;28;20070;-70
2022/03/24 02:10:36;;;;;;;29.02;13.45;;;;;;;5.57;37.06;100727.31;6346597;28;20043;-70
2022/03/24 02:13:36;;;;;;;28.10;13.57;;;;;;;5.50;36.91;100730.13;6347826;28;20088;-70
2022/03/24 02:16:39;;;;;;;25.60;13.50;;;;;;;5.44;36.50;100724.25;6347586;28;20044;-70
2022/03/24 02:19:41;;;;;;;27.27;13.98;;;;;;;5.35;36.03;100726.22;6347786;28;20050;-71
2022/03/24 02:22:41;;;;;;;29.38;15.00;;;;;;;5.31;36.62;100720.28;6362978;27;20070;-70
2022/03/24 02:25:44;;;;;;;29.65;14.63;;;;;;;5.28;36.82;100719.56;6345335;28;20476;-70
2022/03/24 02:28:45;;;;;;;30.27;15.30;;;;;;;5.25;36.92;100723.91;6347064;28;20517;-70
2022/03/24 02:31:48;;;;;;;31.80;15.13;;;;;;;5.12;37.32;100712.22;6347258;28;20128;-70
2022/03/24 02:34:51;;;;;;;30.52;15.18;;;;;;;5.05;37.88;100714.13;6346888;28;20552;-71
2022/03/24 02:37:52;;;;;;;29.27;15.35;;;;;;;5.02;37.80;100715.94;6347037;28;20078;-70
2022/03/24 02:40:53;;;;;;;25.48;14.15;;;;;;;4.92;38.97;100714.50;6347290;28;20043;-70
2022/03/24 02:43:54;;;;;;;32.10;15.50;;;;;;;5.00;38.15;100716.00;6347028;28;20040;-71
2022/03/24 02:46:57;;;;;;;33.15;16.33;;;;;;;5.00;39.30;100715.13;6347112;28;20039;-70
2022/03/24 02:49:58;;;;;;;;;;;;;;;4.87;37.91;100706.88;6346143;28;20678;-70
2022/03/24 02:53:00;;;;;;;72.45;32.97;;;;;;;4.83;38.29;100705.25;6345610;28;19957;-66
2022/03/24 02:56:00;;;;;;;78.65;34.17;;;;;;;4.80;38.41;100713.94;6346908;28;20055;-66
2022/03/24 02:59:02;;;;;;;73.60;32.88;;;;;;;4.77;38.44;100718.34;6345552;28;20078;-67
2022/03/24 03:02:10;;;;;;;69.70;31.45;;;;;;;4.78;39.05;100709.72;6346502;28;20052;-66
2022/03/24 03:05:11;;;;;;;56.45;27.80;;;;;;;4.70;38.78;100706.47;6346492;28;20047;-67
2022/03/24 03:08:12;;;;;;;55.30;26.40;;;;;;;4.54;38.96;100701.69;6346422;27;20044;-67
2022/03/24 03:11:13;;;;;;;70.85;34.05;;;;;;;4.52;39.00;100694.88;6345046;28;20070;-66
2022/03/24 03:14:16;;;;;;;94.35;42.65;;;;;;;4.40;39.04;100698.59;6328329;28;20464;-66
2022/03/24 03:17:17;;;;;;;62.15;29.40;;;;;;;4.34;40.51;100709.09;6346292;28;20400;-67
2022/03/24 03:20:18;;;;;;;40.80;21.40;;;;;;;4.32;40.56;100708.28;6346395;28;20062;-66
2022/03/24 03:23:20;;;;;;;39.53;19.37;;;;;;;4.23;40.18;100705.03;6346396;28;20089;-67
2022/03/24 03:26:22;;;;;;;41.72;18.33;;;;;;;4.15;40.42;100708.69;6346343;28;20499;-66
2022/03/24 03:29:23;;;;;;;39.30;19.30;;;;;;;4.13;40.90;100708.72;6346173;28;20387;-66
2022/03/24 03:32:24;;;;;;;42.47;19.35;;;;;;;4.08;41.00;100697.69;6346057;28;20123;-66
2022/03/24 03:35:25;;;;;;;36.83;19.50;;;;;;;3.98;40.58;100697.03;6344962;28;20050;-67
2022/03/24 03:38:26;;;;;;;39.75;20.13;;;;;;;3.95;40.82;100709.16;6346086;28;20040;-67
2022/03/24 03:41:28;;;;;;;41.83;20.93;;;;;;;3.92;40.63;100714.41;6346330;28;20047;-67
2022/03/24 03:44:28;;;;;;;44.63;21.48;;;;;;;3.90;40.67;100714.44;6346071;28;20570;-67
2022/03/24 03:47:29;;;;;;;51.92;22.17;;;;;;;3.83;41.62;100720.66;6349182;28;20047;-66
2022/03/24 03:50:30;;;;;;;36.45;19.17;;;;;;;3.56;41.08;100720.38;6349197;28;20051;-66
2022/03/24 03:53:32;;;;;;;40.50;18.92;;;;;;;3.50;41.33;100724.78;6350417;28;20040;-66
2022/03/24 03:56:34;;;;;;;40.28;17.88;;;;;;;3.47;42.24;100717.97;6350570;28;20048;-66
2022/03/24 03:59:35;;;;;;;50.17;28.42;;;;;;;3.51;41.91;100706.69;6350183;28;20051;-66
2022/03/24 04:02:35;;;;;;;43.60;22.90;;;;;;;3.46;42.04;100705.97;6348818;28;20050;-66
2022/03/24 04:05:36;;;;;;;37.25;17.98;;;;;;;3.51;41.30;100703.28;6331899;28;20071;-66
2022/03/24 04:08:39;;;;;;;37.05;16.63;;;;;;;3.59;41.70;100711.69;6349810;28;20040;-66
2022/03/24 04:11:40;;;;;;;69.93;30.17;;;;;;;3.57;42.32;100713.47;6349953;28;20035;-66
2022/03/24 04:14:40;;;;;;;150.02;51.95;;;;;;;3.47;41.94;100715.38;6349445;28;20061;-70
2022/03/24 04:17:41;;;;;;;117.90;45.08;;;;;;;3.43;41.89;100719.75;6348760;28;20071;-70
2022/03/24 04:20:43;;;;;;;97.78;38.17;;;;;;;3.42;42.72;100718.06;6349757;28;20112;-70
2022/03/24 04:23:44;;;;;;;60.30;28.23;;;;;;;3.43;42.59;100711.16;6349020;28;20437;-70
2022/03/24 04:26:45;;;;;;;49.00;22.30;;;;;;;3.35;42.38;100710.47;6350137;28;20069;-70
2022/03/24 04:29:46;;;;;;;35.65;16.67;;;;;;;3.31;42.27;100712.25;6349036;28;20365;-70
2022/03/24 04:32:48;;;;;;;28.17;15.00;;;;;;;3.24;41.62;100702.97;6350298;28;20495;-70
2022/03/24 04:35:50;;;;;;;31.05;16.92;;;;;;;3.17;41.96;100699.66;6350140;28;20039;-70
2022/03/24 04:38:51;;;;;;;35.88;16.33;;;;;;;3.11;43.18;100697.22;6349989;28;20043;-70
2022/03/24 04:41:51;;;;;;;34.03;15.07;;;;;;;3.06;43.04;100695.59;6348777;28;20043;-70
2022/03/24 04:44:53;;;;;;;34.20;16.17;;;;;;;3.01;43.37;100693.13;6348608;28;20044;-70
2022/03/24 04:47:54;;;;;;;31.92;14.88;;;;;;;3.01;43.05;100693.13;6349811;28;20092;-70
2022/03/24 04:50:55;;;;;;;31.83;15.60;;;;;;;3.07;43.64;100689.53;6348553;28;20039;-70
2022/03/24 04:53:56;;;;;;;34.05;16.70;;;;;;;3.07;42.73;100692.13;6348426;28;20122;-70
2022/03/24 04:56:57;;;;;;;31.05;16.23;;;;;;;3.05;43.25;100687.03;6349332;28;20505;-70
2022/03/24 04:59:57;;;;;;;35.58;16.42;;;;;;;3.05;43.21;100688.72;6348256;28;20047;-70
2022/03/24 05:02:59;;;;;;;36.03;16.35;;;;;;;3.01;43.99;100691.38;6349590;28;20096;-70
2022/03/24 05:05:59;;;;;;;36.67;16.30;;;;;;;3.03;43.39;100691.34;6331032;28;20047;-70
2022/03/24 05:09:00;;;;;;;35.17;15.40;;;;;;;3.15;43.08;100692.81;6347983;28;20557;-70
2022/03/24 05:12:01;;;;;;;36.88;16.92;;;;;;;3.23;42.85;100696.97;6331246;28;20047;-70
2022/03/24 05:15:02;;;;;;;34.63;17.67;;;;;;;3.27;42.67;100697.72;6349298;28;20510;-70
2022/03/24 05:18:06;;;;;;;47.50;19.90;;;;;;;3.32;42.89;100698.50;6347527;28;20047;-70
2022/03/24 05:21:07;;;;;;;48.67;22.20;;;;;;;3.42;42.96;100705.16;6347607;28;20124;-70
2022/03/24 05:24:07;;;;;;;52.22;23.02;;;;;;;3.53;42.84;100706.66;6349079;28;20070;-70
2022/03/24 05:27:10;;;;;;;37.58;20.73;;;;;;;3.59;43.22;100702.22;6348896;28;20089;-70
2022/03/24 05:30:11;;;;;;;;;;;;;;;3.57;43.07;100708.31;6348283;28;20066;-70
2022/03/24 05:33:13;;;;;;;37.33;17.05;;;;;;;3.66;43.32;100695.19;6348709;28;20383;-70
2022/03/24 05:36:15;;;;;;;34.80;17.48;;;;;;;3.70;42.82;100698.56;6347528;28;20044;-70
2022/03/24 05:39:16;;;;;;;35.20;17.80;;;;;;;3.78;42.84;100707.81;6348538;28;20043;-70
2022/03/24 05:42:17;;;;;;;35.60;17.67;;;;;;;3.85;42.85;100705.97;6347338;28;20043;-70
2022/03/24 05:45:18;;;;;;;40.92;18.02;;;;;;;3.82;43.00;100703.44;6348537;28;20440;-70
2022/03/24 05:48:18;;;;;;;36.97;18.35;;;;;;;3.82;43.15;100695.69;6348293;28;20051;-70
2022/03/24 05:51:19;;;;;;;39.13;19.25;;;;;;;4.03;43.62;100704.66;6348275;28;20039;-70
2022/03/24 05:54:21;;;;;;;53.22;20.38;;;;;;;4.20;42.98;100705.13;6330367;28;20061;-70
2022/03/24 05:57:23;;;;;;;43.33;19.75;;;;;;;4.30;42.27;100700.56;6347287;28;20189;-69
2022/03/24 06:00:24;;;;;;;59.97;22.00;;;;;;;4.34;42.44;100701.34;6347607;28;20094;-69
2022/03/24 06:03:29;;;;;;;45.72;19.23;;;;;;;4.41;41.55;100701.16;6347479;28;20044;-69
2022/03/24 06:06:34;;;;;;;40.97;17.95;;;;;;;4.53;41.40;100704.31;6347406;28;20464;-70
2022/03/24 06:09:36;;;;;;;43.78;19.20;;;;;;;4.61;42.29;100699.78;6354329;27;20475;-70
2022/03/24 06:12:37;;;;;;;43.83;20.73;;;;;;;4.74;43.38;100703.75;6350577;27;20061;-70
2022/03/24 06:15:38;;;;;;;57.28;23.25;;;;;;;4.90;42.29;100690.41;6347970;28;20039;-70
2022/03/24 06:18:40;;;;;;;53.17;20.73;;;;;;;4.93;43.10;100703.28;6347500;28;20059;-71
2022/03/24 06:21:41;;;;;;;46.85;20.25;;;;;;;5.19;41.88;100703.41;6347763;28;20430;-71
2022/03/24 06:24:42;;;;;;;34.85;17.02;;;;;;;5.32;40.98;100703.03;6347635;28;20092;-71
2022/03/24 06:27:43;;;;;;;42.47;18.70;;;;;;;5.51;41.56;100698.19;6346419;28;20482;-71
2022/03/24 06:30:44;;;;;;;50.30;23.55;;;;;;;5.71;41.13;100703.59;6329316;28;20387;-71
2022/03/24 06:33:45;;;;;;;56.00;23.20;;;;;;;5.84;40.23;100704.91;6345973;28;20115;-71
2022/03/24 06:36:46;;;;;;;37.95;18.25;;;;;;;5.98;40.55;100712.28;6350504;27;20051;-70
2022/03/24 06:39:47;;;;;;;42.92;18.10;;;;;;;6.11;40.34;100704.13;6359617;27;20408;-71
2022/03/24 06:42:48;;;;;;;39.47;18.92;;;;;;;5.99;41.36;100701.03;6363006;27;20055;-70
2022/03/24 06:45:50;;;;;;;60.13;24.55;;;;;;;6.04;40.99;100699.13;6370533;27;20067;-70
2022/03/24 06:48:51;;;;;;;51.70;21.17;;;;;;;6.27;40.95;100705.31;6369435;27;20529;-70
2022/03/24 06:51:52;;;;;;;43.53;20.03;;;;;;;6.41;40.74;100715.25;6370666;27;20035;-70
2022/03/24 06:54:53;;;;;;;42.00;18.88;;;;;;;6.62;40.59;100704.13;6352535;27;20043;-70
2022/03/24 06:57:54;;;;;;;39.28;19.17;;;;;;;6.83;39.69;100706.88;6369340;27;20039;-71
2022/03/24 07:00:55;;;;;;;42.22;20.25;;;;;;;7.04;40.08;100705.28;6370537;27;20093;-71
2022/03/24 07:03:56;;;;;;;39.30;18.42;;;;;;;7.39;38.61;100710.91;6371219;27;20038;-70
2022/03/24 07:06:57;;;;;;;42.95;21.38;;;;;;;7.61;38.12;100706.63;6371084;27;20079;-71
2022/03/24 07:09:58;;;;;;;41.70;21.77;;;;;;;7.76;37.57;100700.00;6352902;27;20040;-72
2022/03/24 07:12:59;;;;;;;54.17;22.05;;;;;;;7.92;38.08;100708.03;6369877;27;20117;-71
2022/03/24 07:16:00;;;;;;;49.40;20.52;;;;;;;8.15;37.47;100707.09;6371074;27;20441;-71
2022/03/24 07:19:00;;;;;;;46.28;22.42;;;;;;;8.33;37.06;100695.09;6370811;27;20043;-71
2022/03/24 07:22:02;;;;;;;89.82;35.63;;;;;;;8.87;35.93;100696.31;6370853;27;20047;-71
2022/03/24 07:25:08;;;;;;;44.97;20.25;;;;;;;9.14;35.32;100701.22;6370927;27;20062;-71
2022/03/24 07:28:12;;;;;;;70.57;27.85;;;;;;;9.41;34.52;100703.47;6370759;27;20044;-71
2022/03/24 07:31:16;;;;;;;68.60;22.35;;;;;;;9.63;34.52;100706.75;6370717;28;20129;-71
2022/03/24 07:34:17;;;;;;;47.80;21.77;;;;;;;9.88;34.27;100708.22;6370665;27;20041;-71
2022/03/24 07:37:18;;;;;;;65.82;28.55;;;;;;;10.17;33.60;100712.06;6352312;28;20051;-71
2022/03/24 07:40:22;;;;;;;73.13;28.85;;;;;;;10.46;32.98;100709.81;6369419;28;20124;-71
2022/03/24 07:43:22;;;;;;;64.90;26.67;;;;;;;10.71;32.93;100709.41;6370748;27;20073;-71
2022/03/24 07:46:23;;;;;;;85.55;31.48;;;;;;;10.91;33.04;100720.56;6362520;27;20035;-71
2022/03/24 07:49:24;;;;;;;57.47;26.38;;;;;;;11.23;32.28;100714.50;6356793;27;20402;-71
2022/03/24 07:52:30;;;;;;;58.90;26.38;;;;;;;11.42;32.14;100718.75;6357050;27;20122;-71
2022/03/24 07:55:31;;;;;;;51.55;22.15;;;;;;;11.79;31.15;100708.88;6348226;27;20036;-71
2022/03/24 07:58:32;;;;;;;47.65;21.20;;;;;;;12.07;30.29;100709.06;6346845;28;20130;-71
2022/03/24 08:01:35;;;;;;;36.58;19.80;;;;;;;12.29;28.79;100706.06;6344815;28;20059;-72
2022/03/24 08:04:36;;;;;;;36.92;19.58;;;;;;;12.39;30.02;100713.38;6344402;28;20051;-72
2022/03/24 08:07:38;;;;;;;33.65;18.13;;;;;;;12.55;27.39;100711.53;6345283;28;20040;-71
2022/03/24 08:10:40;;;;;;;35.03;19.13;;;;;;;12.65;27.92;100710.06;6369122;28;20137;-71
2022/03/24 08:13:41;;;;;;;39.08;18.95;;;;;;;12.99;27.10;100709.81;6364620;28;20071;-71
2022/03/24 08:16:45;;;;;;;36.63;18.27;;;;;;;13.36;27.59;100710.22;6370807;28;20043;-72
2022/03/24 08:19:45;;;;;;;38.60;19.08;;;;;;;13.45;26.96;100709.66;6368459;27;20126;-72
2022/03/24 08:22:47;;;;;;;43.10;18.77;;;;;;;13.91;26.14;100707.53;6359263;27;20036;-72
2022/03/24 08:25:48;;;;;;;36.17;18.17;;;;;;;13.80;25.83;100703.97;6345387;28;20088;-72
2022/03/24 08:28:49;;;;;;;31.60;17.73;;;;;;;14.22;25.58;100702.94;6343711;28;20047;-72
2022/03/24 08:31:50;;;;;;;32.05;16.40;;;;;;;14.51;26.33;100706.22;6340628;27;20310;-72
2022/03/24 08:34:51;;;;;;;31.75;14.13;;;;;;;14.84;24.39;100710.19;6356523;27;20066;-68
2022/03/24 08:37:52;;;;;;;25.17;14.05;;;;;;;15.27;24.17;100701.94;6373914;27;20047;-71
2022/03/24 08:40:53;;;;;;;25.40;13.13;;;;;;;15.76;23.39;100695.00;6367641;27;20051;-71
2022/03/24 08:43:54;;;;;;;32.22;12.18;;;;;;;15.94;22.80;100689.34;6366835;27;20039;-72
2022/03/24 08:46:55;;;;;;;33.63;12.88;;;;;;;15.62;22.46;100695.97;6363654;27;20041;-71
2022/03/24 08:49:56;;;;;;;21.42;11.85;;;;;;;16.24;23.40;100688.88;6347826;28;20117;-72
2022/03/24 08:52:57;;;;;;;25.77;12.02;;;;;;;16.26;22.23;100694.88;6314041;28;20114;-72
2022/03/24 08:55:58;;;;;;;22.20;12.05;;;;;;;16.69;21.85;100697.72;6348029;28;20060;-72
2022/03/24 08:58:59;;;;;;;26.40;12.50;;;;;;;16.66;22.75;100697.13;6347804;28;20044;-72
2022/03/24 09:02:00;;;;;;;26.77;12.68;;;;;;;17.06;21.82;100696.72;6348608;28;20131;-72
2022/03/24 09:05:01;;;;;;;24.98;12.90;;;;;;;17.01;21.27;100696.25;6348795;28;20479;-72
2022/03/24 09:08:02;;;;;;;26.73;13.40;;;;;;;17.15;22.08;100693.34;6347399;28;20442;-72
2022/03/24 09:11:02;;;;;;;27.52;12.82;;;;;;;17.50;22.00;100693.22;6330445;28;20039;-72
2022/03/24 09:14:03;;;;;;;30.33;14.18;;;;;;;17.40;21.09;100694.91;6347212;28;20046;-72
2022/03/24 09:17:05;;;;;;;27.83;13.73;;;;;;;17.61;21.39;100694.97;6347266;28;20120;-72
2022/03/24 09:20:09;;;;;;;27.17;13.20;;;;;;;17.70;20.64;100686.31;6348357;28;20489;-72
2022/03/24 09:23:12;;;;;;;26.42;12.85;;;;;;;17.62;20.68;100696.63;6348368;28;20040;-72
2022/03/24 09:26:13;;;;;;;26.48;13.57;;;;;;;17.82;21.50;100689.75;6348187;28;20046;-72
2022/03/24 09:29:14;;;;;;;30.48;13.05;;;;;;;17.87;21.08;100692.03;6348148;28;20461;-72
2022/03/24 09:32:17;;;;;;;25.08;13.27;;;;;;;18.08;20.07;100694.75;6346718;28;20464;-72
2022/03/24 09:35:18;;;;;;;22.92;12.95;;;;;;;18.13;19.80;100690.75;6348057;28;20044;-72
2022/03/24 09:38:19;;;;;;;24.40;13.15;;;;;;;18.25;19.95;100691.53;6346936;28;20409;-68
2022/03/24 09:41:21;;;;;;;21.15;12.60;;;;;;;18.49;20.02;100693.94;6329464;28;20047;-68
2022/03/24 09:44:22;;;;;;;24.70;13.40;;;;;;;18.84;20.70;100699.84;6346643;28;20039;-68
2022/03/24 09:47:26;;;;;;;29.30;14.47;;;;;;;19.12;19.32;100696.50;6347621;28;20057;-69
2022/03/24 09:50:28;;;;;;;32.90;14.20;;;;;;;18.93;19.45;100701.72;6347655;28;20487;-70
2022/03/24 09:53:29;;;;;;;28.40;14.02;;;;;;;18.81;19.78;100695.69;6380867;27;20060;-68
2022/03/24 09:56:30;;;;;;;29.08;14.90;;;;;;;19.17;19.08;100695.25;6346399;28;20048;-69
2022/03/24 09:59:31;;;;;;;27.48;14.43;;;;;;;19.42;19.22;100689.50;6346226;28;20081;-69
2022/03/24 10:02:32;;;;;;;31.65;15.77;;;;;;;19.30;19.41;100696.72;6329029;28;20055;-68
2022/03/24 10:05:33;;;;;;;32.55;16.63;;;;;;;19.13;19.46;100692.06;6346436;28;20123;-69
2022/03/24 10:08:35;;;;;;;40.08;17.95;;;;;;;18.86;19.77;100690.84;6345950;28;20043;-68
2022/03/24 10:11:36;;;;;;;32.45;14.25;;;;;;;18.87;19.03;100684.56;6329147;28;20499;-69
2022/03/24 10:14:42;;;;;;;30.23;16.85;;;;;;;19.00;19.64;100694.91;6329602;28;20051;-68
2022/03/24 10:17:54;;;;;;;39.40;16.97;;;;;;;19.42;19.71;100692.16;6347062;28;20129;-68
2022/03/24 10:20:55;;;;;;;38.58;18.05;;;;;;;19.59;20.10;100697.78;6345841;28;20465;-68
2022/03/24 10:24:00;;;;;;;32.05;17.25;;;;;;;20.10;18.99;100689.63;6345687;28;20047;-68
2022/03/24 10:27:03;;;;;;;40.60;18.02;;;;;;;19.92;18.76;100686.00;6345464;28;20040;-68
2022/03/24 10:30:10;;;;;;;37.20;17.58;;;;;;;19.94;19.42;100686.69;6346749;28;20035;-68
2022/03/24 10:33:35;;;;;;;29.23;14.70;;;;;;;19.78;19.33;100687.22;6346494;28;20092;-68
2022/03/24 10:36:41;;;;;;;37.15;16.80;;;;;;;20.09;19.64;100681.81;6346850;28;20495;-69
2022/03/24 10:39:57;;;;;;;35.33;18.10;;;;;;;20.09;18.95;100676.50;6345232;28;20059;-68
2022/03/24 10:42:59;;;;;;;31.02;18.10;;;;;;;20.11;19.69;100677.22;6346334;28;20514;-68
2022/03/24 10:45:59;;;;;;;30.58;18.23;;;;;;;20.06;19.13;100668.84;6346461;28;20495;-68
2022/03/24 10:49:15;;;;;;;29.83;17.83;;;;;;;20.10;19.02;100663.13;6346313;28;20039;-68
2022/03/24 10:52:20;;;;;;;32.80;17.88;;;;;;;20.08;18.99;100659.78;6346019;28;20050;-66
2022/03/24 10:55:44;;;;;;;33.88;16.40;;;;;;;20.03;18.78;100661.19;6345805;28;20035;-65
2022/03/24 10:58:51;;;;;;;32.05;16.17;;;;;;;20.10;19.24;100665.78;6339789;28;20526;-66
2022/03/24 11:01:53;;;;;;;30.77;16.52;;;;;;;20.15;18.51;100653.94;6347935;27;20092;-68
2022/03/24 11:04:58;;;;;;;;;;;;;;;20.44;18.82;100653.88;6360137;27;20039;-69
2022/03/24 11:07:59;;;;;;;35.15;18.23;;;;;;;20.79;18.71;100650.59;6345844;28;20003;-70
2022/03/24 11:11:04;;;;;;;44.50;18.57;;;;;;;21.04;18.48;100646.41;6351639;27;20539;-69
2022/03/24 11:14:05;;;;;;;37.10;18.25;;;;;;;21.11;17.76;100647.53;6354948;27;20134;-72
2022/03/24 11:17:07;;;;;;;32.40;17.02;;;;;;;20.74;18.09;100636.94;6345730;28;20134;-70
2022/03/24 11:20:13;;;;;;;37.70;18.52;;;;;;;20.88;18.90;100648.91;6344485;28;20043;-70
2022/03/24 11:23:34;;;;;;;34.17;17.27;;;;;;;20.96;18.55;100633.09;6344463;28;20042;-73
2022/03/24 11:26:36;;;;;;;41.35;19.63;;;;;;;20.82;19.00;100634.41;6361805;27;20051;-68
2022/03/24 11:29:37;;;;;;;39.88;18.70;;;;;;;21.09;18.23;100633.56;6365808;27;20045;-69
2022/03/24 11:32:42;;;;;;;45.35;18.30;;;;;;;20.80;18.81;100631.06;6371005;27;20039;-72
2022/03/24 11:35:43;;;;;;;38.20;16.48;;;;;;;21.16;18.72;100633.81;6370786;27;20089;-69
2022/03/24 11:38:48;;;;;;;38.87;17.73;;;;;;;21.21;18.84;100631.56;6363279;28;20488;-69
2022/03/24 11:41:52;;;;;;;35.22;18.80;;;;;;;21.15;19.96;100624.19;6345216;28;20074;-68
2022/03/24 11:45:01;;;;;;;36.33;17.08;;;;;;;21.20;17.96;100623.72;6344434;28;20052;-69
2022/03/24 11:48:12;;;;;;;29.42;15.82;;;;;;;21.13;17.76;100618.19;6345314;28;20055;-72
2022/03/24 11:51:23;;;;;;;30.02;16.63;;;;;;;21.36;17.80;100615.94;6344235;28;20039;-68
2022/03/24 11:54:35;;;;;;;40.45;17.23;;;;;;;20.78;18.41;100616.28;6343980;28;20462;-68
2022/03/24 11:57:36;;;;;;;37.40;15.07;;;;;;;21.04;17.93;100603.97;6349201;27;20043;-68
2022/03/24 12:00:40;;;;;;;34.10;14.77;;;;;;;20.79;18.12;100610.81;6367220;27;20063;-72
2022/03/24 12:03:41;;;;;;;36.33;14.68;;;;;;;21.07;17.06;100616.13;6367620;28;20073;-68
2022/03/24 12:09:55;;;;;;;30.63;15.10;;;;;;;20.87;18.12;100616.22;6375599;27;20050;-68
2022/03/24 12:13:21;;;;;;;29.92;14.25;;;;;;;21.01;17.44;100614.06;6375383;27;20039;-69
2022/03/24 12:16:25;;;;;;;29.60;14.82;;;;;;;20.92;17.40;100613.97;6375481;27;20071;-70
2022/03/24 12:19:53;;;;;;;26.63;15.00;;;;;;;21.13;17.34;100608.41;6375336;27;20479;-69
2022/03/24 12:23:03;;;;;;;32.40;15.38;;;;;;;20.88;17.33;100603.81;6375225;27;20039;-68
2022/03/24 12:26:10;;;;;;;32.25;15.57;;;;;;;20.54;18.01;100599.84;6359597;27;20046;-69
2022/03/24 12:29:11;;;;;;;24.40;14.15;;;;;;;20.47;17.80;100600.59;6347778;28;20407;-68
2022/03/24 12:32:12;;;;;;;23.63;12.77;;;;;;;20.79;18.19;100602.84;6348553;28;20118;-69
2022/03/24 12:35:41;;;;;;;29.85;14.43;;;;;;;20.58;17.84;100596.91;6348506;28;20472;-69
2022/03/24 12:38:46;;;;;;;30.17;15.50;;;;;;;20.70;17.79;100603.75;6348337;28;20043;-69
2022/03/24 12:42:20;;;;;;;28.05;14.32;;;;;;;20.62;18.43;100588.56;6348528;28;20126;-68
2022/03/24 12:45:26;;;;;;;40.50;14.77;;;;;;;20.69;18.10;100599.41;6325346;28;20536;-69
2022/03/24 12:48:39;;;;;;;26.45;13.52;;;;;;;20.67;17.66;100588.09;6348872;28;20043;-68
2022/03/24 12:51:50;;;;;;;37.03;13.82;;;;;;;20.57;17.70;100592.59;6347849;28;20043;-69
2022/03/24 12:54:55;;;;;;;27.23;13.23;;;;;;;20.58;17.62;100588.97;6347392;28;20461;-69
2022/03/24 12:58:01;;;;;;;29.70;13.30;;;;;;;20.90;18.13;100594.72;6348858;27;20050;-69
2022/03/24 13:01:02;;;;;;;43.58;16.25;;;;;;;20.92;17.21;100587.44;6348405;28;20055;-69
2022/03/24 13:04:05;;;;;;;38.07;13.53;;;;;;;20.64;17.28;100585.75;6348863;28;20129;-68
2022/03/24 13:07:07;;;;;;;27.60;12.30;;;;;;;21.05;17.66;100575.66;6348481;28;20302;-69
2022/03/24 13:10:12;;;;;;;33.13;11.77;;;;;;;21.09;17.42;100579.69;6347310;28;20067;-69
2022/03/24 13:13:13;;;;;;;24.67;12.93;;;;;;;20.57;17.67;100579.31;6348772;28;20039;-69
2022/03/24 13:16:22;;;;;;;25.97;13.87;;;;;;;20.72;18.05;100577.91;6347252;28;20044;-68
2022/03/24 13:19:22;;;;;;;32.97;12.35;;;;;;;20.81;17.29;100577.03;6348141;28;20054;-69
2022/03/24 13:22:26;;;;;;;32.47;13.27;;;;;;;20.57;17.10;100571.38;6347080;28;20070;-69
2022/03/24 13:25:29;;;;;;;23.63;11.35;;;;;;;20.33;17.27;100568.25;6346916;28;20042;-68
2022/03/24 13:28:31;;;;;;;18.95;10.30;;;;;;;20.24;16.89;100581.53;6346815;28;20427;-67
2022/03/24 13:31:32;;;;;;;17.92;8.65;;;;;;;20.17;16.22;100581.28;6330122;28;20548;-68
2022/03/24 13:34:33;;;;;;;29.40;8.50;;;;;;;20.57;16.05;100577.53;6347810;28;20487;-69
2022/03/24 13:37:43;;;;;;;20.73;8.25;;;;;;;20.41;16.87;100569.38;6347859;28;20287;-69
2022/03/24 13:40:46;;;;;;;27.23;8.27;;;;;;;20.06;15.83;100566.38;6347692;28;20043;-69
2022/03/24 13:43:47;;;;;;;23.05;7.65;;;;;;;19.97;15.78;100564.56;6347690;28;20488;-68
2022/03/24 13:46:48;;;;;;;28.50;6.80;;;;;;;19.75;15.47;100568.38;6347994;28;20039;-68
2022/03/24 13:49:56;;;;;;;23.90;7.10;;;;;;;20.25;15.45;100552.25;6329380;28;20454;-69
2022/03/24 13:52:58;;;;;;;27.05;8.30;;;;;;;20.09;15.06;100552.00;6347438;28;20423;-68
2022/03/24 13:56:13;;;;;;;23.02;6.53;;;;;;;20.13;14.89;100548.91;6347414;28;20054;-68
2022/03/24 13:59:14;;;;;;;17.88;5.68;;;;;;;19.98;14.06;100555.66;6347216;28;20204;-68
2022/03/24 14:02:22;;;;;;;13.43;6.83;;;;;;;19.87;14.46;100550.50;6347111;28;20063;-69